Time;durP1;ratioP1;P1;durP2;ratioP2;P2;SDS_P1;SDS_P2;PMS_P1;PMS_P2;Temp;Humidity;BMP_temperature;BMP_pressure;BME280_temperature;BME280_humidity;BME280_pressure;Samples;Min_cycle;Max_cycle;Signal;HPM_P1;HPM_P2
2021/03/03 00:00:11;;;;;;;18.53;7.43;;;;;;;0.50;100.00;100277.25;1790539;79;20922;-74
2021/03/03 00:02:39;;;;;;;14.40;4.60;;;;;;;0.50;100.00;100276.77;1813881;79;21456;-77
2021/03/03 00:05:09;;;;;;;9.47;4.83;;;;;;;0.49;100.00;100270.20;1790282;80;20967;-76
2021/03/03 00:07:37;;;;;;;7.93;4.47;;;;;;;0.50;100.00;100278.58;1813911;79;21597;-76
2021/03/03 00:10:05;;;;;;;8.13;4.57;;;;;;;0.51;100.00;100275.82;1790344;79;21554;-76
2021/03/03 00:12:33;;;;;;;13.90;6.33;;;;;;;0.50;100.00;100268.78;1813800;79;21005;-76
2021/03/03 00:15:01;;;;;;;11.53;4.93;;;;;;;0.49;100.00;100272.38;1813948;79;21198;-76
2021/03/03 00:17:29;;;;;;;11.30;5.23;;;;;;;0.48;100.00;100275.14;1790333;79;20977;-75
2021/03/03 00:19:58;;;;;;;9.17;4.10;;;;;;;0.47;100.00;100271.63;1813766;79;20963;-74
2021/03/03 00:22:27;;;;;;;13.40;5.60;;;;;;;0.47;100.00;100274.78;1790400;80;21003;-75
2021/03/03 00:24:55;;;;;;;13.17;5.67;;;;;;;0.47;100.00;100274.30;1813898;79;20970;-76
2021/03/03 00:27:23;;;;;;;9.93;5.17;;;;;;;0.48;100.00;100272.02;1790355;80;21659;-76
2021/03/03 00:29:52;;;;;;;9.97;5.00;;;;;;;0.48;100.00;100267.16;1796371;79;20939;-75
2021/03/03 00:32:20;;;;;;;9.20;4.97;;;;;;;0.47;100.00;100272.97;1797865;79;21030;-75
2021/03/03 00:34:48;;;;;;;9.07;5.03;;;;;;;0.48;100.00;100275.14;1788943;79;21122;-75
2021/03/03 00:37:16;;;;;;;9.17;4.43;;;;;;;0.47;100.00;100266.31;1771943;80;21581;-74
2021/03/03 00:39:44;;;;;;;8.93;4.73;;;;;;;0.48;100.00;100273.35;1772181;81;21256;-76
2021/03/03 00:42:12;;;;;;;8.50;4.27;;;;;;;0.49;100.00;100276.86;1755707;81;20949;-76
2021/03/03 00:44:40;;;;;;;13.97;5.43;;;;;;;0.48;100.00;100281.33;1772083;81;21093;-75
2021/03/03 00:47:08;;;;;;;10.10;4.77;;;;;;;0.48;100.00;100274.68;1755596;81;21008;-75
2021/03/03 00:49:36;;;;;;;11.40;4.60;;;;;;;0.50;100.00;100286.56;1772120;81;20938;-75
2021/03/03 00:52:05;;;;;;;13.07;5.20;;;;;;;0.48;100.00;100287.11;1755620;81;21386;-75
2021/03/03 00:54:33;;;;;;;9.47;4.27;;;;;;;0.48;100.00;100291.98;1772074;81;21492;-75
2021/03/03 00:57:01;;;;;;;8.10;4.20;;;;;;;0.48;100.00;100284.45;1755563;81;21001;-75
2021/03/03 00:59:29;;;;;;;6.53;4.20;;;;;;;0.49;100.00;100288.83;1772090;81;21018;-76
2021/03/03 01:01:57;;;;;;;11.73;4.33;;;;;;;0.48;100.00;100293.77;1755666;81;21000;-75
2021/03/03 01:04:26;;;;;;;7.57;3.77;;;;;;;0.46;100.00;100294.34;1772127;81;21420;-76
2021/03/03 01:06:54;;;;;;;9.37;4.40;;;;;;;0.46;100.00;100294.34;1755576;81;21055;-75
2021/03/03 01:09:23;;;;;;;9.37;4.73;;;;;;;0.44;100.00;100293.11;1772126;81;21572;-75
2021/03/03 01:11:51;;;;;;;11.90;4.63;;;;;;;0.46;100.00;100301.87;1755642;81;21459;-75
2021/03/03 01:14:20;;;;;;;8.37;4.53;;;;;;;0.46;100.00;100299.21;1772414;81;21485;-76
2021/03/03 01:16:53;;;;;;;8.33;3.63;;;;;;;0.45;100.00;100304.63;1755744;81;22384;-74
2021/03/03 01:19:22;;;;;;;8.73;4.20;;;;;;;0.45;100.00;100309.46;1767921;81;20978;-77
2021/03/03 01:21:50;;;;;;;6.93;4.00;;;;;;;0.44;100.00;100306.90;1755691;81;20914;-76
2021/03/03 01:24:18;;;;;;;6.93;3.37;;;;;;;0.43;100.00;100314.52;1772101;81;20942;-76
2021/03/03 01:26:46;;;;;;;12.20;5.50;;;;;;;0.43;100.00;100311.86;1755640;81;21107;-76
2021/03/03 01:29:14;;;;;;;10.57;4.30;;;;;;;0.42;100.00;100312.31;1790869;79;21199;-75
2021/03/03 01:31:42;;;;;;;10.87;4.80;;;;;;;0.42;100.00;100316.79;1796523;79;21012;-75
2021/03/03 01:34:10;;;;;;;9.10;4.00;;;;;;;0.42;100.00;100321.63;1819520;78;20912;-76
2021/03/03 01:36:38;;;;;;;7.03;3.67;;;;;;;0.42;100.00;100327.44;1799228;79;21014;-76
2021/03/03 01:39:07;;;;;;;11.83;4.57;;;;;;;0.40;100.00;100328.86;1790325;80;21555;-75
2021/03/03 01:41:35;;;;;;;5.93;3.47;;;;;;;0.41;100.00;100329.70;1790444;80;21807;-76
2021/03/03 01:44:03;;;;;;;7.13;4.03;;;;;;;0.38;100.00;100331.61;1790434;80;20982;-76
2021/03/03 01:46:31;;;;;;;5.20;2.73;;;;;;;0.37;100.00;100339.23;1790496;80;20939;-75
2021/03/03 01:49:00;;;;;;;7.30;3.87;;;;;;;0.36;100.00;100338.84;1790368;80;20999;-75
2021/03/03 01:51:27;;;;;;;6.80;3.30;;;;;;;0.35;100.00;100334.49;1790326;80;21038;-75
2021/03/03 01:53:55;;;;;;;8.43;3.83;;;;;;;0.33;100.00;100341.69;1790387;80;21656;-75
2021/03/03 01:56:23;;;;;;;8.27;3.97;;;;;;;0.33;100.00;100347.02;1790374;80;20990;-75
2021/03/03 01:58:51;;;;;;;10.57;4.30;;;;;;;0.31;100.00;100340.94;1790503;80;20982;-75
2021/03/03 02:01:20;;;;;;;7.20;3.17;;;;;;;0.32;100.00;100335.13;1790403;80;20982;-75
2021/03/03 02:03:48;;;;;;;7.77;4.03;;;;;;;0.31;100.00;100350.73;1790497;80;20975;-76
2021/03/03 02:06:55;;;;;;;7.17;3.47;;;;;;;0.28;100.00;100349.11;1822795;78;21238;-75
2021/03/03 02:09:54;;;;;;;7.77;3.50;;;;;;;0.26;100.00;100347.03;1822853;78;21002;-77
2021/03/03 02:12:49;;;;;;;9.73;4.77;;;;;;;0.25;100.00;100361.75;1822907;78;21206;-75
2021/03/03 02:15:17;;;;;;;10.67;4.63;;;;;;;0.20;100.00;100363.39;1682649;85;21037;-76
2021/03/03 02:17:45;;;;;;;6.57;4.93;;;;;;;0.16;100.00;100371.16;1682827;85;21009;-76
2021/03/03 02:20:15;;;;;;;8.37;4.40;;;;;;;0.12;100.00;100369.17;1679429;85;21102;-76
2021/03/03 02:23:14;;;;;;;6.67;4.23;;;;;;;0.11;100.00;100370.62;1682869;85;21200;-76
2021/03/03 02:25:43;;;;;;;7.97;3.90;;;;;;;0.09;100.00;100376.48;1682856;85;20962;-75
2021/03/03 02:28:11;;;;;;;6.77;4.33;;;;;;;0.05;100.00;100378.97;1680666;85;21042;-76
2021/03/03 02:30:41;;;;;;;9.03;5.53;;;;;;;0.03;100.00;100384.86;1688140;84;21089;-76
2021/03/03 02:33:13;;;;;;;13.30;7.00;;;;;;;0.00;100.00;100389.91;1683454;85;21973;-76
2021/03/03 02:35:43;;;;;;;10.37;6.33;;;;;;;-0.03;100.00;100396.25;1688764;85;20983;-75
2021/03/03 02:38:11;;;;;;;4.73;3.97;;;;;;;-0.04;100.00;100391.02;1689423;85;21132;-75
2021/03/03 02:40:41;;;;;;;5.30;3.37;;;;;;;-0.07;100.00;100393.86;1689439;85;20979;-77
2021/03/03 02:43:18;;;;;;;9.70;3.80;;;;;;;-0.11;100.00;100392.34;1689472;85;21493;-76
2021/03/03 02:45:47;;;;;;;7.83;4.17;;;;;;;-0.14;100.00;100397.84;1689489;85;21595;-75
2021/03/03 02:48:16;;;;;;;6.60;3.33;;;;;;;-0.17;100.00;100403.37;1689259;85;21050;-75
2021/03/03 02:50:44;;;;;;;7.87;3.77;;;;;;;-0.20;100.00;100409.71;1689367;85;21600;-75
2021/03/03 02:53:13;;;;;;;6.53;3.87;;;;;;;-0.22;100.00;100411.61;1758301;81;21041;-74
2021/03/03 02:55:43;;;;;;;8.93;3.47;;;;;;;-0.23;100.00;100413.87;1793851;80;20929;-75
2021/03/03 02:58:11;;;;;;;7.47;4.37;;;;;;;-0.24;100.00;100419.67;1767552;80;21568;-76
2021/03/03 03:00:41;;;;;;;6.10;3.63;;;;;;;-0.23;100.00;100420.52;1793644;80;21018;-76
2021/03/03 03:03:46;;;;;;;8.60;5.40;;;;;;;-0.22;100.00;100428.41;1793618;80;20977;-74
2021/03/03 03:06:37;;;;;;;9.28;4.83;;;;;;;-0.20;100.00;100434.48;1793655;80;21065;-75
2021/03/03 03:09:23;;;;;;;13.23;6.50;;;;;;;-0.17;100.00;100431.28;1793770;80;21006;-74
2021/03/03 03:12:09;;;;;;;6.67;4.60;;;;;;;-0.16;100.00;100439.62;1793846;80;20979;-76
2021/03/03 03:14:54;;;;;;;11.97;5.77;;;;;;;-0.16;100.00;100443.61;1793595;80;21045;-75
2021/03/03 03:17:22;;;;;;;11.27;5.03;;;;;;;-0.17;100.00;100437.44;1767432;80;21034;-75
2021/03/03 03:19:50;;;;;;;7.93;5.00;;;;;;;-0.16;100.00;100447.14;1793809;80;20927;-76
2021/03/03 03:22:18;;;;;;;4.60;3.57;;;;;;;-0.16;100.00;100450.25;1793996;80;21421;-76
2021/03/03 03:24:47;;;;;;;6.47;3.90;;;;;;;-0.16;100.00;100452.91;1793816;80;21803;-75
2021/03/03 03:27:15;;;;;;;11.20;5.03;;;;;;;-0.18;100.00;100454.33;1793591;80;21014;-75
2021/03/03 03:29:43;;;;;;;11.43;6.43;;;;;;;-0.21;100.00;100458.03;1815815;78;21032;-75
2021/03/03 03:32:13;;;;;;;10.20;5.03;;;;;;;-0.25;100.00;100459.17;1809682;79;20938;-74
2021/03/03 03:34:41;;;;;;;14.83;6.40;;;;;;;-0.28;100.00;100459.35;1791581;80;20970;-76
2021/03/03 03:37:09;;;;;;;13.27;5.73;;;;;;;-0.29;100.00;100462.09;1813770;79;21191;-76
2021/03/03 03:39:37;;;;;;;15.23;7.37;;;;;;;-0.33;100.00;100464.08;1813803;79;21124;-75
2021/03/03 03:42:05;;;;;;;7.37;4.23;;;;;;;-0.33;100.00;100467.22;1790456;80;21025;-74
2021/03/03 03:44:33;;;;;;;5.10;3.43;;;;;;;-0.33;100.00;100467.22;1813833;79;20887;-76
2021/03/03 03:47:01;;;;;;;5.93;3.73;;;;;;;-0.33;100.00;100470.73;1790343;80;20934;-77
2021/03/03 03:49:29;;;;;;;5.50;3.33;;;;;;;-0.34;100.00;100476.97;1813704;79;21456;-74
2021/03/03 03:51:57;;;;;;;3.50;3.10;;;;;;;-0.35;100.00;100475.28;1790261;80;20997;-76
2021/03/03 03:54:25;;;;;;;9.03;3.23;;;;;;;-0.35;100.00;100477.94;1813611;79;21033;-77
2021/03/03 03:56:53;;;;;;;9.63;3.97;;;;;;;-0.37;100.00;100478.50;1790385;80;20926;-76
2021/03/03 03:59:21;;;;;;;6.37;3.00;;;;;;;-0.41;100.00;100480.48;1813815;79;21006;-76
2021/03/03 04:01:49;;;;;;;4.60;3.00;;;;;;;-0.43;100.00;100488.99;1790284;79;21644;-75
2021/03/03 04:04:17;;;;;;;8.40;3.13;;;;;;;-0.45;100.00;100486.06;1813688;79;20989;-76
2021/03/03 04:06:46;;;;;;;3.77;2.70;;;;;;;-0.46;100.00;100489.20;1813715;79;20997;-76
2021/03/03 04:09:14;;;;;;;4.50;3.37;;;;;;;-0.48;100.00;100492.42;1790457;80;21029;-76
2021/03/03 04:11:41;;;;;;;4.90;2.60;;;;;;;-0.50;100.00;100494.28;1813969;79;21033;-76
2021/03/03 04:14:10;;;;;;;4.73;2.73;;;;;;;-0.53;100.00;100497.59;1790572;80;21189;-76
2021/03/03 04:16:38;;;;;;;4.80;3.13;;;;;;;-0.56;100.00;100499.13;1813960;79;21010;-76
2021/03/03 04:19:06;;;;;;;6.30;3.30;;;;;;;-0.59;100.00;100495.67;1813788;79;20954;-77
2021/03/03 04:21:34;;;;;;;4.83;3.00;;;;;;;-0.62;100.00;100495.88;1790294;79;21013;-76
2021/03/03 04:24:04;;;;;;;7.43;3.07;;;;;;;-0.64;100.00;100500.88;1813675;79;20958;-75
2021/03/03 04:26:32;;;;;;;11.40;5.17;;;;;;;-0.65;100.00;100505.34;1790274;80;21778;-76
2021/03/03 04:28:59;;;;;;;6.40;3.63;;;;;;;-0.66;100.00;100500.11;1793331;79;20935;-76
2021/03/03 04:31:27;;;;;;;6.80;3.83;;;;;;;-0.65;100.00;100513.30;1766258;80;21117;-76
2021/03/03 04:33:55;;;;;;;6.73;3.53;;;;;;;-0.64;100.00;100520.79;1770478;79;20977;-75
2021/03/03 04:36:23;;;;;;;4.17;2.90;;;;;;;-0.61;100.00;100521.95;1781746;80;21487;-76
2021/03/03 04:38:51;;;;;;;3.43;2.77;;;;;;;-0.61;100.00;100529.92;1784164;79;21709;-75
2021/03/03 04:41:19;;;;;;;3.70;2.70;;;;;;;-0.60;100.00;100533.82;1784673;80;20929;-74
2021/03/03 04:43:46;;;;;;;3.47;2.60;;;;;;;-0.57;100.00;100528.80;1784774;80;21032;-76
2021/03/03 04:46:14;;;;;;;2.10;1.90;;;;;;;-0.53;100.00;100539.65;1784523;80;21044;-76
2021/03/03 04:48:43;;;;;;;5.30;3.33;;;;;;;-0.51;100.00;100543.52;1784681;80;20992;-76
2021/03/03 04:51:11;;;;;;;15.37;7.53;;;;;;;-0.50;100.00;100547.90;1784650;80;21663;-76
2021/03/03 04:53:38;;;;;;;25.40;11.10;;;;;;;-0.49;100.00;100554.45;1784719;80;21534;-76
2021/03/03 04:56:06;;;;;;;7.67;4.80;;;;;;;-0.45;100.00;100546.69;1784685;79;21000;-76
2021/03/03 04:58:35;;;;;;;5.63;3.77;;;;;;;-0.41;100.00;100557.55;1784596;79;20957;-75
2021/03/03 05:01:04;;;;;;;4.50;3.27;;;;;;;-0.36;100.00;100562.58;1784712;80;20989;-76
2021/03/03 05:03:33;;;;;;;4.47;3.03;;;;;;;-0.31;100.00;100556.52;1780943;80;20982;-75
2021/03/03 05:06:03;;;;;;;4.53;3.00;;;;;;;-0.25;100.00;100569.48;1780415;80;20956;-76
2021/03/03 05:08:31;;;;;;;3.50;2.33;;;;;;;-0.21;100.00;100565.68;1784673;80;21541;-75
2021/03/03 05:10:59;;;;;;;11.03;5.10;;;;;;;-0.18;100.00;100572.61;1784555;80;21012;-75
2021/03/03 05:13:27;;;;;;;5.50;3.40;;;;;;;-0.13;100.00;100581.66;1784704;80;21601;-75
2021/03/03 05:15:55;;;;;;;5.17;3.73;;;;;;;-0.11;100.00;100579.28;1784693;79;21192;-75
2021/03/03 05:18:23;;;;;;;7.37;4.00;;;;;;;-0.09;100.00;100589.83;1784666;80;20989;-76
2021/03/03 05:20:51;;;;;;;4.87;3.30;;;;;;;-0.09;100.00;100585.39;1784759;80;20960;-76
2021/03/03 05:23:32;;;;;;;6.33;2.57;;;;;;;-0.06;100.00;100595.82;1784716;80;20882;-75
2021/03/03 05:26:01;;;;;;;4.07;3.13;;;;;;;0.01;100.00;100600.31;1784548;80;20964;-76
2021/03/03 05:28:29;;;;;;;3.83;3.27;;;;;;;0.08;100.00;100609.64;1783691;80;21380;-76
2021/03/03 05:30:57;;;;;;;3.93;2.60;;;;;;;0.14;100.00;100607.97;1763478;80;21000;-75
2021/03/03 05:33:31;;;;;;;3.07;2.07;;;;;;;0.19;100.00;100619.65;1757778;80;20985;-76
2021/03/03 05:36:02;;;;;;;4.93;2.97;;;;;;;0.23;100.00;100621.20;1813721;79;20990;-76
2021/03/03 05:38:33;;;;;;;6.70;3.80;;;;;;;0.27;100.00;100615.23;1790764;80;20973;-75
2021/03/03 05:41:01;;;;;;;4.07;2.63;;;;;;;0.27;100.00;100621.88;1814375;79;21208;-74
2021/03/03 05:43:32;;;;;;;4.30;2.80;;;;;;;0.30;100.00;100629.20;1790711;79;20949;-76
2021/03/03 05:46:00;;;;;;;4.63;2.90;;;;;;;0.35;100.00;100631.12;1813754;79;21504;-75
2021/03/03 05:48:40;;;;;;;7.97;4.43;;;;;;;0.42;100.00;100638.23;1790152;80;20970;-76
2021/03/03 05:51:08;;;;;;;5.67;3.43;;;;;;;0.45;100.00;100631.89;1813716;79;21555;-75
2021/03/03 05:53:36;;;;;;;8.57;4.13;;;;;;;0.47;100.00;100640.16;1790198;80;21715;-76
2021/03/03 05:56:08;;;;;;;15.13;6.37;;;;;;;0.49;100.00;100650.70;1813670;79;20930;-76
2021/03/03 05:58:39;;;;;;;15.43;6.60;;;;;;;0.53;100.00;100649.11;1813791;79;24254;-76
2021/03/03 06:01:09;;;;;;;7.30;4.00;;;;;;;0.60;100.00;100643.41;1669172;85;21601;-76
2021/03/03 06:03:37;;;;;;;13.40;5.50;;;;;;;0.67;100.00;100654.91;1716184;83;21609;-74
2021/03/03 06:06:06;;;;;;;4.93;2.90;;;;;;;0.77;100.00;100656.56;1680681;84;21439;-76
2021/03/03 06:08:34;;;;;;;3.67;2.90;;;;;;;0.90;100.00;100657.54;1696670;84;21464;-75
2021/03/03 06:11:03;;;;;;;6.53;3.40;;;;;;;1.05;100.00;100654.39;1731678;82;20984;-75
2021/03/03 06:13:32;;;;;;;12.73;5.37;;;;;;;1.21;100.00;100660.11;1697286;84;21043;-76
2021/03/03 06:16:00;;;;;;;18.30;7.83;;;;;;;1.33;100.00;100658.01;1699177;83;21150;-76
2021/03/03 06:18:29;;;;;;;17.93;7.43;;;;;;;1.45;100.00;100663.90;1685607;83;21118;-74
2021/03/03 06:20:57;;;;;;;13.93;6.63;;;;;;;1.55;100.00;100660.64;1650211;86;21201;-75
2021/03/03 06:23:28;;;;;;;10.33;5.80;;;;;;;1.66;100.00;100660.31;1667340;84;21605;-75
2021/03/03 06:26:09;;;;;;;5.70;3.63;;;;;;;1.80;100.00;100667.42;1811079;77;26616;-75
2021/03/03 06:28:43;;;;;;;6.73;3.57;;;;;;;1.78;100.00;100662.67;1782564;80;20990;-75
2021/03/03 06:31:33;;;;;;;4.67;2.53;;;;;;;1.77;100.00;100662.31;1782866;80;22189;-75
2021/03/03 06:34:14;;;;;;;3.53;2.73;;;;;;;1.81;100.00;100659.81;1890625;76;26703;-75
2021/03/03 06:36:44;;;;;;;4.97;2.97;;;;;;;1.74;100.00;100665.66;1861506;77;20974;-72
2021/03/03 06:39:22;;;;;;;7.00;3.03;;;;;;;1.74;100.00;100670.50;1861150;77;21422;-74
2021/03/03 06:41:53;;;;;;;8.13;4.30;;;;;;;1.78;100.00;100665.83;1861230;77;21034;-78
2021/03/03 06:44:23;;;;;;;4.83;3.53;;;;;;;1.87;100.00;100674.07;1860947;77;20979;-73
2021/03/03 06:47:06;;;;;;;5.30;2.83;;;;;;;1.94;100.00;100666.53;1860878;77;21139;-75
2021/03/03 06:49:34;;;;;;;14.58;6.58;;;;;;;2.03;100.00;100669.08;1861105;77;20967;-73
2021/03/03 06:52:02;;;;;;;9.77;5.33;;;;;;;2.19;100.00;100670.25;1860907;77;21887;-75
2021/03/03 06:54:30;;;;;;;3.97;2.60;;;;;;;2.33;100.00;100673.34;1860933;77;20974;-75
2021/03/03 06:56:58;;;;;;;13.20;6.17;;;;;;;2.46;100.00;100668.42;1860796;77;20919;-76
2021/03/03 06:59:32;;;;;;;19.33;7.17;;;;;;;2.56;100.00;100677.13;1861090;77;21070;-76
2021/03/03 07:02:09;;;;;;;21.17;7.07;;;;;;;2.59;100.00;100676.93;1861194;77;21002;-75
2021/03/03 07:04:39;;;;;;;19.83;8.53;;;;;;;2.66;100.00;100679.56;1861090;77;21314;-74
2021/03/03 07:07:19;;;;;;;6.17;3.77;;;;;;;2.80;100.00;100677.28;1861077;77;20975;-77
2021/03/03 07:09:58;;;;;;;6.70;3.50;;;;;;;2.85;100.00;100669.33;1861092;77;20923;-74
2021/03/03 07:12:30;;;;;;;5.80;3.47;;;;;;;2.92;100.00;100675.10;1852349;76;20955;-77
2021/03/03 07:15:06;;;;;;;8.93;3.97;;;;;;;2.92;100.00;100666.21;1735975;82;20976;-72
2021/03/03 07:17:40;;;;;;;7.70;4.33;;;;;;;2.90;100.00;100665.47;1791248;79;21816;-77
2021/03/03 07:20:39;;;;;;;9.60;4.40;;;;;;;2.95;100.00;100658.84;1836228;77;26958;-76
2021/03/03 07:23:07;;;;;;;23.57;11.50;;;;;;;3.01;100.00;100657.09;1805255;78;21549;-76
2021/03/03 07:25:35;;;;;;;11.47;4.73;;;;;;;3.15;100.00;100652.58;1824202;78;22100;-76
2021/03/03 07:28:05;;;;;;;11.50;5.17;;;;;;;3.23;100.00;100654.23;1825514;78;21084;-75
2021/03/03 07:30:33;;;;;;;16.40;7.57;;;;;;;3.30;100.00;100652.84;1738433;80;21010;-74
2021/03/03 07:33:01;;;;;;;19.80;9.43;;;;;;;3.46;100.00;100659.28;1778691;79;20995;-75
2021/03/03 07:35:31;;;;;;;15.17;7.87;;;;;;;3.69;100.00;100656.27;1820397;78;21020;-77
2021/03/03 07:37:59;;;;;;;12.00;3.70;;;;;;;3.88;100.00;100654.91;1800045;78;21677;-73
2021/03/03 07:40:28;;;;;;;9.13;4.70;;;;;;;3.98;100.00;100654.15;1763122;79;21849;-75
2021/03/03 07:43:00;;;;;;;6.03;3.90;;;;;;;4.02;100.00;100656.11;1797607;78;21044;-75
2021/03/03 07:45:39;;;;;;;17.37;7.43;;;;;;;4.09;100.00;100649.80;1761119;79;21209;-76
2021/03/03 07:48:10;;;;;;;8.87;5.00;;;;;;;4.05;100.00;100651.00;1750557;80;21101;-73
2021/03/03 07:50:40;;;;;;;9.80;5.27;;;;;;;4.05;100.00;100653.19;1764089;80;21273;-79
2021/03/03 07:53:19;;;;;;;22.97;7.00;;;;;;;4.20;100.00;100652.55;1771891;79;21036;-77
2021/03/03 07:55:47;;;;;;;11.50;5.37;;;;;;;4.31;100.00;100655.26;1745334;80;21227;-76
2021/03/03 07:58:15;;;;;;;9.73;4.60;;;;;;;4.31;100.00;100653.08;1734634;81;21179;-76
2021/03/03 08:00:43;;;;;;;5.97;3.27;;;;;;;4.27;100.00;100648.93;1744030;81;21021;-78
2021/03/03 08:03:13;;;;;;;8.60;4.20;;;;;;;4.31;100.00;100639.19;1716120;82;21197;-77
2021/03/03 08:05:43;;;;;;;6.13;3.70;;;;;;;4.48;100.00;100641.94;1710081;83;20966;-79
2021/03/03 08:08:33;;;;;;;9.17;5.00;;;;;;;4.68;100.00;100648.44;1692421;82;21224;-79
2021/03/03 08:11:07;;;;;;;6.00;3.40;;;;;;;4.77;100.00;100642.86;1709577;83;21145;-79
2021/03/03 08:13:39;;;;;;;8.67;2.93;;;;;;;4.80;100.00;100648.45;1667140;84;21635;-78
2021/03/03 08:16:07;;;;;;;8.27;4.33;;;;;;;4.84;100.00;100643.24;1689688;84;22295;-81
2021/03/03 08:18:54;;;;;;;10.37;4.53;;;;;;;4.88;100.00;100638.00;1712016;83;21151;-80
2021/03/03 08:21:31;;;;;;;16.07;4.83;;;;;;;5.00;100.00;100637.05;1855982;76;26939;-79
2021/03/03 08:24:00;;;;;;;20.83;8.30;;;;;;;5.03;100.00;100639.95;1827010;78;21481;-74
2021/03/03 08:26:32;;;;;;;8.77;4.20;;;;;;;5.10;100.00;100643.89;1838921;78;21183;-75
2021/03/03 08:29:21;;;;;;;17.25;7.22;;;;;;;5.15;100.00;100649.71;1839320;77;21645;-74
2021/03/03 08:31:49;;;;;;;10.37;4.90;;;;;;;5.12;100.00;100644.12;1827020;78;21478;-75
2021/03/03 08:34:19;;;;;;;5.73;3.50;;;;;;;5.16;100.00;100647.41;1826976;76;20940;-77
2021/03/03 08:36:53;;;;;;;12.53;5.87;;;;;;;5.23;100.00;100652.65;1824861;78;20882;-76
2021/03/03 08:39:23;;;;;;;14.80;8.07;;;;;;;5.31;100.00;100652.03;1826303;77;22287;-76
2021/03/03 08:41:52;;;;;;;9.23;4.70;;;;;;;5.41;100.00;100658.38;1790360;78;21609;-77
2021/03/03 08:44:20;;;;;;;8.17;4.50;;;;;;;5.38;100.00;100657.27;1788831;78;21066;-77
2021/03/03 08:46:50;;;;;;;10.40;4.90;;;;;;;5.33;100.00;100660.34;1793581;78;21034;-74
2021/03/03 08:49:25;;;;;;;9.07;4.87;;;;;;;5.39;100.00;100667.53;1788699;78;21032;-75
2021/03/03 08:52:08;;;;;;;8.30;4.13;;;;;;;5.43;100.00;100665.80;1776089;80;21430;-74
2021/03/03 08:54:41;;;;;;;15.48;7.45;;;;;;;5.47;100.00;100671.31;1751633;80;21088;-75
2021/03/03 08:57:33;;;;;;;7.93;4.30;;;;;;;5.51;100.00;100673.26;1818651;76;26556;-73
2021/03/03 09:00:02;;;;;;;5.10;3.63;;;;;;;5.53;100.00;100684.71;1800626;79;20937;-77
2021/03/03 09:02:38;;;;;;;26.23;8.93;;;;;;;5.53;100.00;100683.88;1735669;81;21533;-75
2021/03/03 09:05:10;;;;;;;22.00;7.93;;;;;;;5.54;100.00;100681.03;1758855;81;21033;-73
2021/03/03 09:07:39;;;;;;;11.00;5.30;;;;;;;5.58;100.00;100689.22;1766454;80;21173;-74
2021/03/03 09:10:19;;;;;;;7.17;3.80;;;;;;;5.79;100.00;100701.41;1753433;81;20937;-81
2021/03/03 09:12:46;;;;;;;8.87;3.90;;;;;;;6.03;100.00;100697.23;1754306;81;20905;-78
2021/03/03 09:15:16;;;;;;;7.53;4.43;;;;;;;5.99;100.00;100697.13;1730097;82;21825;-75
2021/03/03 09:17:45;;;;;;;7.83;4.27;;;;;;;5.94;100.00;100700.64;1752654;81;21021;-74
2021/03/03 09:20:18;;;;;;;4.17;2.93;;;;;;;5.94;100.00;100698.45;1740208;81;21622;-74
2021/03/03 09:22:47;;;;;;;3.70;2.70;;;;;;;6.13;100.00;100702.70;1750539;81;21066;-75
2021/03/03 09:25:22;;;;;;;5.73;3.67;;;;;;;6.28;100.00;100704.61;1770657;79;20997;-74
2021/03/03 09:27:56;;;;;;;5.20;3.80;;;;;;;6.18;100.00;100711.24;1760455;80;22532;-73
2021/03/03 09:30:26;;;;;;;8.20;3.33;;;;;;;6.05;100.00;100707.84;1733572;81;21131;-73
2021/03/03 09:32:55;;;;;;;7.07;3.20;;;;;;;5.82;100.00;100711.03;1768415;79;20956;-76
2021/03/03 09:35:30;;;;;;;5.77;3.80;;;;;;;5.64;100.00;100718.73;1775997;79;21019;-74
2021/03/03 09:38:01;;;;;;;3.40;2.93;;;;;;;5.58;100.00;100713.84;1757283;81;21055;-74
2021/03/03 09:40:32;;;;;;;6.27;3.70;;;;;;;5.53;100.00;100724.11;1723303;82;21748;-74
2021/03/03 09:43:01;;;;;;;4.70;2.87;;;;;;;5.38;100.00;100735.55;1669353;86;21195;-74
2021/03/03 09:45:30;;;;;;;2.40;1.90;;;;;;;5.18;100.00;100727.23;1727190;83;21119;-74
2021/03/03 09:47:58;;;;;;;6.20;3.80;;;;;;;5.01;100.00;100733.91;1726731;81;21047;-72
2021/03/03 09:50:30;;;;;;;9.50;3.67;;;;;;;4.98;100.00;100735.48;1726250;83;21095;-72
2021/03/03 09:52:59;;;;;;;5.10;2.77;;;;;;;5.18;100.00;100739.79;1728210;83;21898;-75
2021/03/03 09:55:35;;;;;;;11.63;3.70;;;;;;;5.39;100.00;100731.90;1725838;81;21412;-74
2021/03/03 09:58:04;;;;;;;7.40;4.00;;;;;;;5.55;100.00;100733.73;1722431;81;21174;-76
2021/03/03 10:00:38;;;;;;;8.33;4.17;;;;;;;5.70;100.00;100731.17;1727041;83;21607;-73
2021/03/03 10:03:14;;;;;;;8.60;4.30;;;;;;;5.79;100.00;100730.92;1727310;81;21008;-77
2021/03/03 10:05:43;;;;;;;12.03;5.07;;;;;;;5.76;100.00;100731.16;1701575;83;21280;-74
2021/03/03 10:08:13;;;;;;;7.73;4.10;;;;;;;5.69;100.00;100725.42;1726469;81;21072;-75
2021/03/03 10:10:46;;;;;;;11.77;5.27;;;;;;;5.68;100.00;100726.42;1727142;81;21444;-74
2021/03/03 10:13:21;;;;;;;8.93;4.77;;;;;;;5.83;100.00;100716.27;1698387;84;21024;-76
2021/03/03 10:15:48;;;;;;;13.53;4.23;;;;;;;6.05;100.00;100727.98;1701047;82;21075;-75
2021/03/03 10:18:16;;;;;;;6.57;3.00;;;;;;;6.22;100.00;100719.90;1726962;81;21403;-74
2021/03/03 10:20:54;;;;;;;8.73;4.07;;;;;;;6.13;100.00;100722.00;1723759;83;21049;-73
2021/03/03 10:23:31;;;;;;;10.63;5.33;;;;;;;5.85;100.00;100721.02;1698095;84;21070;-74
2021/03/03 10:26:08;;;;;;;5.77;3.30;;;;;;;5.61;100.00;100714.48;1728798;81;21653;-72
2021/03/03 10:28:42;;;;;;;10.23;5.60;;;;;;;5.57;100.00;100712.15;1888333;74;26412;-73
2021/03/03 10:31:23;;;;;;;12.50;6.23;;;;;;;5.45;100.00;100716.64;1870667;76;20871;-73
2021/03/03 10:33:51;;;;;;;7.00;4.23;;;;;;;5.45;100.00;100717.98;1865239;76;22104;-80
2021/03/03 10:36:21;;;;;;;17.63;4.43;;;;;;;5.48;100.00;100723.12;1873969;76;20943;-72
2021/03/03 10:38:55;;;;;;;5.20;3.20;;;;;;;5.40;100.00;100718.84;1875008;76;20974;-76
2021/03/03 10:44:08;;;;;;;7.03;3.97;;;;;;;5.66;100.00;100722.98;1903016;74;26531;-74
2021/03/03 10:46:45;;;;;;;10.23;4.03;;;;;;;5.87;100.00;100723.59;1793576;79;21009;-74
2021/03/03 10:51:46;;;;;;;6.37;3.10;;;;;;;5.87;100.00;100726.27;1762013;80;21100;-72
2021/03/03 10:54:29;;;;;;;9.57;5.17;;;;;;;5.95;100.00;100726.98;1780567;80;21202;-72
2021/03/03 10:57:06;;;;;;;3.87;3.00;;;;;;;6.21;100.00;100722.20;1759596;80;21633;-75
2021/03/03 10:59:48;;;;;;;5.53;3.57;;;;;;;6.55;100.00;100720.28;1818693;76;26488;-76
2021/03/03 11:02:24;;;;;;;8.93;5.17;;;;;;;6.44;100.00;100736.42;1795997;79;21000;-75
2021/03/03 11:04:55;;;;;;;3.93;2.63;;;;;;;6.21;100.00;100739.16;1786083;79;22743;-75
2021/03/03 11:07:25;;;;;;;4.35;2.85;;;;;;;6.11;100.00;100731.98;1778641;80;20996;-76
2021/03/03 11:09:53;;;;;;;3.43;2.70;;;;;;;6.24;100.00;100725.49;1782662;79;21664;-74
2021/03/03 11:12:23;;;;;;;6.73;3.23;;;;;;;6.48;100.00;100731.18;1789416;79;21011;-76
2021/03/03 11:14:55;;;;;;;5.33;2.70;;;;;;;6.50;100.00;100724.30;1744883;81;21113;-76
2021/03/03 11:17:23;;;;;;;5.87;2.83;;;;;;;6.25;100.00;100733.05;1748855;81;21816;-75
2021/03/03 11:19:51;;;;;;;9.53;3.33;;;;;;;6.23;100.00;100723.80;1757986;81;21670;-75
2021/03/03 11:22:19;;;;;;;4.63;2.77;;;;;;;6.42;100.00;100737.89;1742633;79;21854;-75
2021/03/03 11:24:47;;;;;;;5.63;2.77;;;;;;;6.57;100.00;100734.91;1747545;81;21130;-76
2021/03/03 11:27:17;;;;;;;11.80;4.30;;;;;;;6.47;100.00;100730.80;1699824;82;21200;-76
2021/03/03 11:29:45;;;;;;;5.93;3.33;;;;;;;6.33;100.00;100741.34;1751229;81;21818;-75
2021/03/03 11:32:15;;;;;;;6.70;4.20;;;;;;;6.10;100.00;100739.70;1742581;81;21035;-76
2021/03/03 11:34:43;;;;;;;7.53;4.37;;;;;;;5.99;100.00;100734.70;1730158;81;21040;-76
2021/03/03 11:37:12;;;;;;;5.20;2.90;;;;;;;6.14;100.00;100735.28;1733049;82;21103;-78
2021/03/03 11:39:40;;;;;;;12.27;5.63;;;;;;;6.40;100.00;100729.11;1726818;83;21110;-78
2021/03/03 11:42:08;;;;;;;20.47;12.13;;;;;;;6.62;100.00;100740.75;1732442;82;21213;-78
2021/03/03 11:44:36;;;;;;;24.90;14.60;;;;;;;6.70;100.00;100745.50;1699207;84;21207;-78